Signal Hill, Illinois
Current Conditions -  °F | °C
As of 4:53 AM on Wednesday 26 Nov 2014 (Local Time) from KCPS Reporting Station
Clear Clear  
Wind Chill: 23°   Ceiling: Unl
Heat Index: 29°   Visibility: 9mi
Dew Point: 26°   Wind: 6mph
Humidity: 89%   Direction: 140°SE
Pressure: 30.1"   Gusts: NA
Location:  38.5251°N, 90.0796°W
Report Text: KCPS 261053Z AUTO 14005KT 9SM CLR M02/M03 A3010 RMK AO2 SLP196 T10171033 TSNO
Loading
Personal Weather Stations






























Interactive Weather Map New forecast layout! Learn more

10-Day Weather Forecast

Advertisements
Track Severe Weather on mobile